sensor_id;sensor_type;location;lat;lon;timestamp;P1;durP1;ratioP1;P2;durP2;ratioP2
26965;SDS011;14522;52.068;4.414;2022-08-01T00:00:04;8.38;;;4.18;;
26965;SDS011;14522;52.068;4.414;2022-08-01T00:02:34;6.95;;;3.47;;
26965;SDS011;14522;52.068;4.414;2022-08-01T00:05:01;8.57;;;3.08;;
26965;SDS011;14522;52.068;4.414;2022-08-01T00:07:28;3.65;;;2.40;;
26965;SDS011;14522;52.068;4.414;2022-08-01T00:09:54;8.32;;;2.95;;
26965;SDS011;14522;52.068;4.414;2022-08-01T00:12:21;8.27;;;3.70;;
26965;SDS011;14522;52.068;4.414;2022-08-01T00:14:47;3.63;;;2.70;;
26965;SDS011;14522;52.068;4.414;2022-08-01T00:17:14;6.10;;;2.72;;
26965;SDS011;14522;52.068;4.414;2022-08-01T00:19:40;11.98;;;3.35;;
26965;SDS011;14522;52.068;4.414;2022-08-01T00:22:07;6.88;;;3.60;;
26965;SDS011;14522;52.068;4.414;2022-08-01T00:24:34;4.15;;;2.38;;
26965;SDS011;14522;52.068;4.414;2022-08-01T00:27:00;2.75;;;1.92;;
26965;SDS011;14522;52.068;4.414;2022-08-01T00:29:27;3.63;;;1.80;;
26965;SDS011;14522;52.068;4.414;2022-08-01T00:32:13;3.28;;;1.50;;
26965;SDS011;14522;52.068;4.414;2022-08-01T00:34:40;3.83;;;1.73;;
26965;SDS011;14522;52.068;4.414;2022-08-01T00:37:06;4.35;;;2.08;;
26965;SDS011;14522;52.068;4.414;2022-08-01T00:39:33;2.67;;;1.50;;
26965;SDS011;14522;52.068;4.414;2022-08-01T00:42:00;2.88;;;1.58;;
26965;SDS011;14522;52.068;4.414;2022-08-01T00:44:26;4.18;;;1.92;;
26965;SDS011;14522;52.068;4.414;2022-08-01T00:46:53;2.42;;;1.33;;
26965;SDS011;14522;52.068;4.414;2022-08-01T00:49:19;1.70;;;0.80;;
26965;SDS011;14522;52.068;4.414;2022-08-01T00:51:46;1.58;;;1.10;;
26965;SDS011;14522;52.068;4.414;2022-08-01T00:54:12;1.20;;;1.02;;
26965;SDS011;14522;52.068;4.414;2022-08-01T00:56:43;1.38;;;0.82;;
26965;SDS011;14522;52.068;4.414;2022-08-01T00:59:11;3.17;;;1.13;;
26965;SDS011;14522;52.068;4.414;2022-08-01T01:01:39;2.90;;;1.20;;
26965;SDS011;14522;52.068;4.414;2022-08-01T01:04:11;1.90;;;1.05;;
26965;SDS011;14522;52.068;4.414;2022-08-01T01:06:48;1.52;;;1.00;;
26965;SDS011;14522;52.068;4.414;2022-08-01T01:09:26;2.55;;;1.02;;
26965;SDS011;14522;52.068;4.414;2022-08-01T01:17:26;0.98;;;0.80;;
26965;SDS011;14522;52.068;4.414;2022-08-01T01:20:15;0.90;;;0.80;;
26965;SDS011;14522;52.068;4.414;2022-08-01T01:23:05;2.67;;;0.80;;
26965;SDS011;14522;52.068;4.414;2022-08-01T01:28:15;0.93;;;0.70;;
26965;SDS011;14522;52.068;4.414;2022-08-01T01:30:44;1.50;;;0.70;;
26965;SDS011;14522;52.068;4.414;2022-08-01T01:33:11;5.68;;;1.35;;
26965;SDS011;14522;52.068;4.414;2022-08-01T01:35:44;2.55;;;0.90;;
26965;SDS011;14522;52.068;4.414;2022-08-01T01:38:23;1.05;;;0.90;;
26965;SDS011;14522;52.068;4.414;2022-08-01T01:40:52;2.03;;;1.00;;
26965;SDS011;14522;52.068;4.414;2022-08-01T01:43:19;1.80;;;0.63;;
26965;SDS011;14522;52.068;4.414;2022-08-01T01:45:54;3.08;;;0.80;;
26965;SDS011;14522;52.068;4.414;2022-08-01T01:48:22;1.25;;;0.63;;
26965;SDS011;14522;52.068;4.414;2022-08-01T01:50:49;6.53;;;1.33;;
26965;SDS011;14522;52.068;4.414;2022-08-01T01:53:20;2.10;;;0.95;;
26965;SDS011;14522;52.068;4.414;2022-08-01T01:55:50;2.90;;;1.15;;
26965;SDS011;14522;52.068;4.414;2022-08-01T01:58:18;3.53;;;1.25;;
26965;SDS011;14522;52.068;4.414;2022-08-01T02:00:47;1.83;;;1.20;;
26965;SDS011;14522;52.068;4.414;2022-08-01T02:03:16;5.13;;;1.15;;
26965;SDS011;14522;52.068;4.414;2022-08-01T02:05:43;3.45;;;1.58;;
26965;SDS011;14522;52.068;4.414;2022-08-01T02:08:10;3.33;;;1.35;;
26965;SDS011;14522;52.068;4.414;2022-08-01T02:10:39;1.58;;;0.80;;
26965;SDS011;14522;52.068;4.414;2022-08-01T02:13:05;2.80;;;1.10;;
26965;SDS011;14522;52.068;4.414;2022-08-01T02:15:33;2.08;;;1.20;;
26965;SDS011;14522;52.068;4.414;2022-08-01T02:18:01;2.88;;;1.02;;
26965;SDS011;14522;52.068;4.414;2022-08-01T02:20:29;2.88;;;1.10;;
26965;SDS011;14522;52.068;4.414;2022-08-01T02:22:57;1.80;;;1.00;;
26965;SDS011;14522;52.068;4.414;2022-08-01T02:25:27;3.63;;;0.88;;
26965;SDS011;14522;52.068;4.414;2022-08-01T02:30:35;2.35;;;0.82;;
26965;SDS011;14522;52.068;4.414;2022-08-01T02:33:06;1.42;;;0.80;;
26965;SDS011;14522;52.068;4.414;2022-08-01T02:35:41;2.20;;;0.90;;
26965;SDS011;14522;52.068;4.414;2022-08-01T02:38:30;2.50;;;0.70;;
26965;SDS011;14522;52.068;4.414;2022-08-01T02:40:58;1.60;;;0.80;;
26965;SDS011;14522;52.068;4.414;2022-08-01T02:43:26;1.98;;;0.70;;
26965;SDS011;14522;52.068;4.414;2022-08-01T02:45:55;0.98;;;0.57;;
26965;SDS011;14522;52.068;4.414;2022-08-01T02:48:24;0.88;;;0.50;;
26965;SDS011;14522;52.068;4.414;2022-08-01T02:50:52;1.20;;;0.50;;
26965;SDS011;14522;52.068;4.414;2022-08-01T02:53:20;1.75;;;0.70;;
26965;SDS011;14522;52.068;4.414;2022-08-01T02:56:08;1.50;;;0.55;;
26965;SDS011;14522;52.068;4.414;2022-08-01T02:58:36;2.17;;;0.60;;
26965;SDS011;14522;52.068;4.414;2022-08-01T03:01:04;2.45;;;0.95;;
26965;SDS011;14522;52.068;4.414;2022-08-01T03:03:33;0.82;;;0.40;;
26965;SDS011;14522;52.068;4.414;2022-08-01T03:06:00;1.10;;;0.52;;
26965;SDS011;14522;52.068;4.414;2022-08-01T03:08:28;1.15;;;0.50;;
26965;SDS011;14522;52.068;4.414;2022-08-01T03:10:55;1.45;;;0.50;;
26965;SDS011;14522;52.068;4.414;2022-08-01T03:13:23;1.35;;;0.60;;
26965;SDS011;14522;52.068;4.414;2022-08-01T03:15:51;2.10;;;0.77;;
26965;SDS011;14522;52.068;4.414;2022-08-01T03:18:18;3.83;;;0.70;;
26965;SDS011;14522;52.068;4.414;2022-08-01T03:20:45;1.45;;;0.50;;
26965;SDS011;14522;52.068;4.414;2022-08-01T03:23:12;2.15;;;0.57;;
26965;SDS011;14522;52.068;4.414;2022-08-01T03:25:39;0.65;;;0.40;;
26965;SDS011;14522;52.068;4.414;2022-08-01T03:28:06;1.08;;;0.50;;
26965;SDS011;14522;52.068;4.414;2022-08-01T03:30:34;2.67;;;0.50;;
26965;SDS011;14522;52.068;4.414;2022-08-01T03:33:02;1.05;;;0.60;;
26965;SDS011;14522;52.068;4.414;2022-08-01T03:35:30;1.75;;;0.60;;
26965;SDS011;14522;52.068;4.414;2022-08-01T03:37:56;1.60;;;0.45;;
26965;SDS011;14522;52.068;4.414;2022-08-01T03:40:49;1.35;;;0.57;;
26965;SDS011;14522;52.068;4.414;2022-08-01T03:44:20;4.05;;;0.65;;
26965;SDS011;14522;52.068;4.414;2022-08-01T03:46:17;1.02;;;0.50;;
26965;SDS011;14522;52.068;4.414;2022-08-01T03:48:48;1.13;;;0.40;;
26965;SDS011;14522;52.068;4.414;2022-08-01T03:51:16;1.67;;;0.60;;
26965;SDS011;14522;52.068;4.414;2022-08-01T03:53:44;0.30;;;0.30;;
26965;SDS011;14522;52.068;4.414;2022-08-01T03:56:12;0.93;;;0.32;;
26965;SDS011;14522;52.068;4.414;2022-08-01T03:58:39;2.60;;;0.50;;
26965;SDS011;14522;52.068;4.414;2022-08-01T04:01:06;1.77;;;0.50;;
26965;SDS011;14522;52.068;4.414;2022-08-01T04:03:41;2.53;;;0.65;;
26965;SDS011;14522;52.068;4.414;2022-08-01T04:06:08;1.92;;;0.50;;
26965;SDS011;14522;52.068;4.414;2022-08-01T04:08:36;1.27;;;0.50;;
26965;SDS011;14522;52.068;4.414;2022-08-01T04:11:03;1.05;;;0.60;;
26965;SDS011;14522;52.068;4.414;2022-08-01T04:13:30;3.33;;;0.50;;
26965;SDS011;14522;52.068;4.414;2022-08-01T04:16:03;1.75;;;0.47;;
26965;SDS011;14522;52.068;4.414;2022-08-01T04:18:30;2.53;;;0.60;;
26965;SDS011;14522;52.068;4.414;2022-08-01T04:20:56;0.38;;;0.30;;
26965;SDS011;14522;52.068;4.414;2022-08-01T04:23:24;1.10;;;0.50;;
26965;SDS011;14522;52.068;4.414;2022-08-01T04:25:51;0.38;;;0.20;;
26965;SDS011;14522;52.068;4.414;2022-08-01T04:28:18;2.55;;;0.40;;
26965;SDS011;14522;52.068;4.414;2022-08-01T04:30:46;0.47;;;0.30;;
26965;SDS011;14522;52.068;4.414;2022-08-01T04:33:14;0.38;;;0.30;;
26965;SDS011;14522;52.068;4.414;2022-08-01T04:35:45;0.52;;;0.43;;
26965;SDS011;14522;52.068;4.414;2022-08-01T04:38:30;3.42;;;0.47;;
26965;SDS011;14522;52.068;4.414;2022-08-01T04:40:58;1.23;;;0.40;;
26965;SDS011;14522;52.068;4.414;2022-08-01T04:43:34;0.40;;;0.32;;
26965;SDS011;14522;52.068;4.414;2022-08-01T04:46:01;1.13;;;0.50;;
26965;SDS011;14522;52.068;4.414;2022-08-01T04:48:29;2.25;;;0.50;;
26965;SDS011;14522;52.068;4.414;2022-08-01T04:50:57;1.38;;;0.47;;
26965;SDS011;14522;52.068;4.414;2022-08-01T04:53:24;1.38;;;0.57;;
26965;SDS011;14522;52.068;4.414;2022-08-01T04:55:52;2.28;;;0.73;;
26965;SDS011;14522;52.068;4.414;2022-08-01T04:58:18;3.20;;;1.05;;
26965;SDS011;14522;52.068;4.414;2022-08-01T05:00:47;3.58;;;0.80;;
26965;SDS011;14522;52.068;4.414;2022-08-01T05:03:14;2.13;;;0.70;;
26965;SDS011;14522;52.068;4.414;2022-08-01T05:05:40;0.60;;;0.50;;
26965;SDS011;14522;52.068;4.414;2022-08-01T05:08:07;0.90;;;0.40;;
26965;SDS011;14522;52.068;4.414;2022-08-01T05:10:33;0.57;;;0.55;;
26965;SDS011;14522;52.068;4.414;2022-08-01T05:13:00;0.80;;;0.68;;
26965;SDS011;14522;52.068;4.414;2022-08-01T05:15:26;1.15;;;0.50;;
26965;SDS011;14522;52.068;4.414;2022-08-01T05:17:53;1.27;;;0.55;;
26965;SDS011;14522;52.068;4.414;2022-08-01T05:20:20;1.58;;;0.93;;
26965;SDS011;14522;52.068;4.414;2022-08-01T05:22:46;1.58;;;0.85;;
26965;SDS011;14522;52.068;4.414;2022-08-01T05:25:13;2.50;;;1.00;;
26965;SDS011;14522;52.068;4.414;2022-08-01T05:27:45;0.95;;;0.70;;
26965;SDS011;14522;52.068;4.414;2022-08-01T05:30:14;1.45;;;0.77;;
26965;SDS011;14522;52.068;4.414;2022-08-01T05:32:40;1.00;;;0.73;;
26965;SDS011;14522;52.068;4.414;2022-08-01T05:35:08;1.77;;;0.75;;
26965;SDS011;14522;52.068;4.414;2022-08-01T05:37:34;1.77;;;0.75;;
26965;SDS011;14522;52.068;4.414;2022-08-01T05:40:01;1.02;;;0.57;;
26965;SDS011;14522;52.068;4.414;2022-08-01T05:42:27;1.83;;;0.90;;
26965;SDS011;14522;52.068;4.414;2022-08-01T05:44:53;1.38;;;0.60;;
26965;SDS011;14522;52.068;4.414;2022-08-01T05:47:20;1.80;;;0.60;;
26965;SDS011;14522;52.068;4.414;2022-08-01T05:49:46;2.47;;;0.80;;
26965;SDS011;14522;52.068;4.414;2022-08-01T05:52:13;5.53;;;1.00;;
26965;SDS011;14522;52.068;4.414;2022-08-01T05:54:40;1.23;;;0.88;;
26965;SDS011;14522;52.068;4.414;2022-08-01T05:57:06;2.65;;;0.73;;
26965;SDS011;14522;52.068;4.414;2022-08-01T05:59:33;0.65;;;0.65;;
26965;SDS011;14522;52.068;4.414;2022-08-01T06:01:59;1.30;;;0.77;;
26965;SDS011;14522;52.068;4.414;2022-08-01T06:04:26;0.80;;;0.70;;
26965;SDS011;14522;52.068;4.414;2022-08-01T06:06:52;1.15;;;0.73;;
26965;SDS011;14522;52.068;4.414;2022-08-01T06:09:19;1.33;;;0.77;;
26965;SDS011;14522;52.068;4.414;2022-08-01T06:11:45;1.33;;;0.80;;
26965;SDS011;14522;52.068;4.414;2022-08-01T06:14:11;1.40;;;0.80;;
26965;SDS011;14522;52.068;4.414;2022-08-01T06:16:38;1.20;;;0.77;;
26965;SDS011;14522;52.068;4.414;2022-08-01T06:19:04;1.42;;;0.77;;
26965;SDS011;14522;52.068;4.414;2022-08-01T06:21:30;1.42;;;0.93;;
26965;SDS011;14522;52.068;4.414;2022-08-01T06:23:57;1.50;;;0.80;;
26965;SDS011;14522;52.068;4.414;2022-08-01T06:26:23;2.50;;;1.30;;
26965;SDS011;14522;52.068;4.414;2022-08-01T06:28:50;1.67;;;0.95;;
26965;SDS011;14522;52.068;4.414;2022-08-01T06:31:16;1.60;;;0.82;;
26965;SDS011;14522;52.068;4.414;2022-08-01T06:33:42;2.28;;;1.17;;
26965;SDS011;14522;52.068;4.414;2022-08-01T06:36:09;2.55;;;1.63;;
26965;SDS011;14522;52.068;4.414;2022-08-01T06:38:35;4.28;;;1.65;;
26965;SDS011;14522;52.068;4.414;2022-08-01T06:41:02;4.07;;;1.52;;
26965;SDS011;14522;52.068;4.414;2022-08-01T06:43:28;7.43;;;2.45;;
26965;SDS011;14522;52.068;4.414;2022-08-01T06:45:55;7.45;;;2.17;;
26965;SDS011;14522;52.068;4.414;2022-08-01T06:48:21;10.95;;;2.95;;
26965;SDS011;14522;52.068;4.414;2022-08-01T06:50:48;3.17;;;1.70;;
26965;SDS011;14522;52.068;4.414;2022-08-01T06:53:14;6.60;;;2.58;;
26965;SDS011;14522;52.068;4.414;2022-08-01T06:55:41;7.80;;;2.53;;
26965;SDS011;14522;52.068;4.414;2022-08-01T06:58:07;9.98;;;2.40;;
26965;SDS011;14522;52.068;4.414;2022-08-01T07:00:34;11.23;;;2.42;;
26965;SDS011;14522;52.068;4.414;2022-08-01T07:03:00;10.05;;;2.10;;
26965;SDS011;14522;52.068;4.414;2022-08-01T07:05:27;12.80;;;3.28;;
26965;SDS011;14522;52.068;4.414;2022-08-01T07:07:54;7.13;;;2.15;;
26965;SDS011;14522;52.068;4.414;2022-08-01T07:10:20;12.73;;;3.45;;
26965;SDS011;14522;52.068;4.414;2022-08-01T07:12:47;4.80;;;2.42;;
26965;SDS011;14522;52.068;4.414;2022-08-01T07:15:13;10.23;;;2.85;;
26965;SDS011;14522;52.068;4.414;2022-08-01T07:17:40;6.90;;;2.20;;
26965;SDS011;14522;52.068;4.414;2022-08-01T07:20:11;9.32;;;2.58;;
26965;SDS011;14522;52.068;4.414;2022-08-01T07:22:41;8.52;;;2.05;;
26965;SDS011;14522;52.068;4.414;2022-08-01T07:25:08;6.82;;;1.73;;
26965;SDS011;14522;52.068;4.414;2022-08-01T07:27:34;8.80;;;2.35;;
26965;SDS011;14522;52.068;4.414;2022-08-01T07:30:01;6.95;;;1.80;;
26965;SDS011;14522;52.068;4.414;2022-08-01T07:32:28;8.57;;;2.22;;
26965;SDS011;14522;52.068;4.414;2022-08-01T07:34:55;7.60;;;2.42;;
26965;SDS011;14522;52.068;4.414;2022-08-01T07:37:22;6.25;;;1.38;;
26965;SDS011;14522;52.068;4.414;2022-08-01T07:40:10;7.72;;;2.08;;
26965;SDS011;14522;52.068;4.414;2022-08-01T07:42:36;3.65;;;1.65;;
26965;SDS011;14522;52.068;4.414;2022-08-01T07:45:03;12.52;;;2.28;;
26965;SDS011;14522;52.068;4.414;2022-08-01T07:47:30;8.32;;;2.13;;
26965;SDS011;14522;52.068;4.414;2022-08-01T07:49:59;9.43;;;1.83;;
26965;SDS011;14522;52.068;4.414;2022-08-01T07:52:26;10.13;;;2.33;;
26965;SDS011;14522;52.068;4.414;2022-08-01T07:54:53;8.95;;;1.75;;
26965;SDS011;14522;52.068;4.414;2022-08-01T07:57:19;10.15;;;1.70;;
26965;SDS011;14522;52.068;4.414;2022-08-01T07:59:46;6.25;;;1.48;;
26965;SDS011;14522;52.068;4.414;2022-08-01T08:02:12;5.80;;;1.50;;
26965;SDS011;14522;52.068;4.414;2022-08-01T08:04:39;7.60;;;1.38;;
26965;SDS011;14522;52.068;4.414;2022-08-01T08:07:09;11.75;;;1.60;;
26965;SDS011;14522;52.068;4.414;2022-08-01T08:09:36;6.68;;;1.30;;
26965;SDS011;14522;52.068;4.414;2022-08-01T08:12:03;5.53;;;1.80;;
26965;SDS011;14522;52.068;4.414;2022-08-01T08:14:30;5.30;;;1.13;;
26965;SDS011;14522;52.068;4.414;2022-08-01T08:16:58;8.25;;;1.73;;
26965;SDS011;14522;52.068;4.414;2022-08-01T08:19:27;5.55;;;1.48;;
26965;SDS011;14522;52.068;4.414;2022-08-01T08:22:04;9.07;;;2.15;;
26965;SDS011;14522;52.068;4.414;2022-08-01T08:24:31;6.32;;;1.75;;
26965;SDS011;14522;52.068;4.414;2022-08-01T08:26:58;5.18;;;1.23;;
26965;SDS011;14522;52.068;4.414;2022-08-01T08:29:25;6.78;;;1.60;;
26965;SDS011;14522;52.068;4.414;2022-08-01T08:31:52;7.68;;;1.70;;
26965;SDS011;14522;52.068;4.414;2022-08-01T08:34:19;6.57;;;1.40;;
26965;SDS011;14522;52.068;4.414;2022-08-01T08:36:47;5.47;;;1.42;;
26965;SDS011;14522;52.068;4.414;2022-08-01T08:39:14;6.22;;;1.35;;
26965;SDS011;14522;52.068;4.414;2022-08-01T08:41:44;7.20;;;1.75;;
26965;SDS011;14522;52.068;4.414;2022-08-01T08:44:14;7.55;;;1.42;;
26965;SDS011;14522;52.068;4.414;2022-08-01T08:46:43;7.07;;;0.95;;
26965;SDS011;14522;52.068;4.414;2022-08-01T08:49:11;5.68;;;1.20;;
26965;SDS011;14522;52.068;4.414;2022-08-01T08:51:39;8.65;;;1.02;;
26965;SDS011;14522;52.068;4.414;2022-08-01T08:54:06;6.68;;;1.45;;
26965;SDS011;14522;52.068;4.414;2022-08-01T08:56:33;10.18;;;1.75;;
26965;SDS011;14522;52.068;4.414;2022-08-01T08:59:01;8.45;;;1.27;;
26965;SDS011;14522;52.068;4.414;2022-08-01T09:01:28;9.77;;;1.17;;
26965;SDS011;14522;52.068;4.414;2022-08-01T09:03:54;4.40;;;1.05;;
26965;SDS011;14522;52.068;4.414;2022-08-01T09:06:21;8.48;;;1.42;;
26965;SDS011;14522;52.068;4.414;2022-08-01T09:08:47;7.85;;;0.90;;
26965;SDS011;14522;52.068;4.414;2022-08-01T09:11:13;4.05;;;0.80;;
26965;SDS011;14522;52.068;4.414;2022-08-01T09:16:33;8.13;;;1.23;;
26965;SDS011;14522;52.068;4.414;2022-08-01T09:19:06;3.72;;;1.00;;
26965;SDS011;14522;52.068;4.414;2022-08-01T09:21:57;5.22;;;0.90;;
26965;SDS011;14522;52.068;4.414;2022-08-01T09:24:25;2.30;;;0.60;;
26965;SDS011;14522;52.068;4.414;2022-08-01T09:26:56;7.50;;;1.20;;
26965;SDS011;14522;52.068;4.414;2022-08-01T09:29:32;7.32;;;1.25;;
26965;SDS011;14522;52.068;4.414;2022-08-01T09:32:06;3.80;;;0.95;;
26965;SDS011;14522;52.068;4.414;2022-08-01T09:34:39;4.40;;;0.90;;
26965;SDS011;14522;52.068;4.414;2022-08-01T09:37:06;7.65;;;1.50;;
26965;SDS011;14522;52.068;4.414;2022-08-01T09:39:34;4.13;;;1.17;;
26965;SDS011;14522;52.068;4.414;2022-08-01T09:42:24;6.50;;;1.30;;
26965;SDS011;14522;52.068;4.414;2022-08-01T09:44:54;6.55;;;1.52;;
26965;SDS011;14522;52.068;4.414;2022-08-01T09:47:21;9.45;;;1.55;;
26965;SDS011;14522;52.068;4.414;2022-08-01T09:49:54;3.58;;;1.05;;
26965;SDS011;14522;52.068;4.414;2022-08-01T09:52:23;10.52;;;1.40;;
26965;SDS011;14522;52.068;4.414;2022-08-01T09:54:57;9.60;;;1.75;;
26965;SDS011;14522;52.068;4.414;2022-08-01T09:57:23;10.45;;;1.92;;
26965;SDS011;14522;52.068;4.414;2022-08-01T09:59:51;9.60;;;1.30;;
26965;SDS011;14522;52.068;4.414;2022-08-01T10:02:28;3.88;;;1.20;;
26965;SDS011;14522;52.068;4.414;2022-08-01T10:04:55;8.63;;;1.63;;
26965;SDS011;14522;52.068;4.414;2022-08-01T10:07:28;5.05;;;1.02;;
26965;SDS011;14522;52.068;4.414;2022-08-01T10:10:10;7.32;;;1.50;;
26965;SDS011;14522;52.068;4.414;2022-08-01T10:12:36;3.38;;;0.95;;
26965;SDS011;14522;52.068;4.414;2022-08-01T10:15:10;6.25;;;1.30;;
26965;SDS011;14522;52.068;4.414;2022-08-01T10:17:37;4.35;;;1.30;;
26965;SDS011;14522;52.068;4.414;2022-08-01T10:20:17;3.05;;;1.33;;
26965;SDS011;14522;52.068;4.414;2022-08-01T10:23:00;6.10;;;1.60;;
26965;SDS011;14522;52.068;4.414;2022-08-01T10:25:35;7.00;;;1.55;;
26965;SDS011;14522;52.068;4.414;2022-08-01T10:28:15;7.97;;;1.70;;
26965;SDS011;14522;52.068;4.414;2022-08-01T10:30:46;8.43;;;1.60;;
26965;SDS011;14522;52.068;4.414;2022-08-01T10:33:14;8.15;;;1.23;;
26965;SDS011;14522;52.068;4.414;2022-08-01T10:36:01;4.22;;;1.27;;
26965;SDS011;14522;52.068;4.414;2022-08-01T10:38:28;7.07;;;1.50;;
26965;SDS011;14522;52.068;4.414;2022-08-01T10:40:55;3.58;;;1.00;;
26965;SDS011;14522;52.068;4.414;2022-08-01T10:43:23;4.38;;;0.80;;
26965;SDS011;14522;52.068;4.414;2022-08-01T10:45:49;3.42;;;1.00;;
26965;SDS011;14522;52.068;4.414;2022-08-01T10:51:02;6.10;;;1.25;;
26965;SDS011;14522;52.068;4.414;2022-08-01T10:53:50;4.65;;;1.00;;
26965;SDS011;14522;52.068;4.414;2022-08-01T10:56:20;8.35;;;1.38;;
26965;SDS011;14522;52.068;4.414;2022-08-01T10:58:55;7.75;;;1.23;;
26965;SDS011;14522;52.068;4.414;2022-08-01T11:01:28;6.85;;;1.40;;
26965;SDS011;14522;52.068;4.414;2022-08-01T11:04:05;6.30;;;1.80;;
26965;SDS011;14522;52.068;4.414;2022-08-01T11:06:42;7.38;;;1.20;;
26965;SDS011;14522;52.068;4.414;2022-08-01T11:11:58;9.05;;;1.52;;
26965;SDS011;14522;52.068;4.414;2022-08-01T11:14:26;4.97;;;1.95;;
26965;SDS011;14522;52.068;4.414;2022-08-01T11:28:32;8.77;;;1.48;;
26965;SDS011;14522;52.068;4.414;2022-08-01T11:41:12;8.45;;;1.65;;
26965;SDS011;14522;52.068;4.414;2022-08-01T11:51:58;11.13;;;1.20;;
26965;SDS011;14522;52.068;4.414;2022-08-01T11:54:26;6.50;;;1.20;;
26965;SDS011;14522;52.068;4.414;2022-08-01T11:57:02;10.85;;;1.40;;
26965;SDS011;14522;52.068;4.414;2022-08-01T11:59:35;8.10;;;1.67;;
26965;SDS011;14522;52.068;4.414;2022-08-01T12:04:56;3.95;;;1.25;;
26965;SDS011;14522;52.068;4.414;2022-08-01T12:07:23;7.72;;;1.70;;
26965;SDS011;14522;52.068;4.414;2022-08-01T12:12:23;10.90;;;1.63;;
26965;SDS011;14522;52.068;4.414;2022-08-01T12:14:53;6.15;;;1.25;;
26965;SDS011;14522;52.068;4.414;2022-08-01T12:17:43;11.45;;;1.40;;
26965;SDS011;14522;52.068;4.414;2022-08-01T12:20:23;9.45;;;2.00;;
26965;SDS011;14522;52.068;4.414;2022-08-01T12:22:53;5.38;;;1.23;;
26965;SDS011;14522;52.068;4.414;2022-08-01T12:25:20;4.55;;;1.60;;
26965;SDS011;14522;52.068;4.414;2022-08-01T12:27:46;7.45;;;1.27;;
26965;SDS011;14522;52.068;4.414;2022-08-01T12:30:14;10.48;;;1.38;;
26965;SDS011;14522;52.068;4.414;2022-08-01T12:32:42;5.32;;;1.05;;
26965;SDS011;14522;52.068;4.414;2022-08-01T12:35:09;6.90;;;1.33;;
26965;SDS011;14522;52.068;4.414;2022-08-01T12:37:41;5.68;;;1.27;;
26965;SDS011;14522;52.068;4.414;2022-08-01T12:40:10;6.00;;;1.45;;
26965;SDS011;14522;52.068;4.414;2022-08-01T12:42:40;6.10;;;1.52;;
26965;SDS011;14522;52.068;4.414;2022-08-01T12:45:11;7.95;;;1.45;;
26965;SDS011;14522;52.068;4.414;2022-08-01T12:47:38;9.60;;;2.15;;
26965;SDS011;14522;52.068;4.414;2022-08-01T12:50:05;7.65;;;1.50;;
26965;SDS011;14522;52.068;4.414;2022-08-01T12:52:32;8.98;;;1.70;;
26965;SDS011;14522;52.068;4.414;2022-08-01T12:54:59;6.47;;;1.40;;
26965;SDS011;14522;52.068;4.414;2022-08-01T12:57:26;9.25;;;1.30;;
26965;SDS011;14522;52.068;4.414;2022-08-01T12:59:52;8.70;;;2.13;;
26965;SDS011;14522;52.068;4.414;2022-08-01T13:02:19;9.48;;;1.63;;
26965;SDS011;14522;52.068;4.414;2022-08-01T13:04:51;8.02;;;0.95;;
26965;SDS011;14522;52.068;4.414;2022-08-01T13:07:18;5.75;;;1.00;;
26965;SDS011;14522;52.068;4.414;2022-08-01T13:09:51;8.20;;;1.40;;
26965;SDS011;14522;52.068;4.414;2022-08-01T13:12:17;9.18;;;1.08;;
26965;SDS011;14522;52.068;4.414;2022-08-01T13:14:44;4.97;;;1.00;;
26965;SDS011;14522;52.068;4.414;2022-08-01T13:17:10;9.90;;;1.23;;
26965;SDS011;14522;52.068;4.414;2022-08-01T13:19:41;3.75;;;1.02;;
26965;SDS011;14522;52.068;4.414;2022-08-01T13:22:08;3.75;;;0.98;;
26965;SDS011;14522;52.068;4.414;2022-08-01T13:24:35;5.18;;;1.20;;
26965;SDS011;14522;52.068;4.414;2022-08-01T13:27:03;4.30;;;1.38;;
26965;SDS011;14522;52.068;4.414;2022-08-01T13:31:57;6.60;;;1.40;;
26965;SDS011;14522;52.068;4.414;2022-08-01T13:34:31;9.55;;;1.50;;
26965;SDS011;14522;52.068;4.414;2022-08-01T13:36:58;5.80;;;0.77;;
26965;SDS011;14522;52.068;4.414;2022-08-01T13:39:24;7.55;;;0.95;;
26965;SDS011;14522;52.068;4.414;2022-08-01T13:42:14;9.35;;;1.10;;
26965;SDS011;14522;52.068;4.414;2022-08-01T13:44:44;7.95;;;1.00;;
26965;SDS011;14522;52.068;4.414;2022-08-01T13:47:13;6.38;;;1.10;;
26965;SDS011;14522;52.068;4.414;2022-08-01T13:49:42;7.28;;;0.98;;
26965;SDS011;14522;52.068;4.414;2022-08-01T13:52:08;4.53;;;1.10;;
26965;SDS011;14522;52.068;4.414;2022-08-01T13:54:35;5.80;;;0.95;;
26965;SDS011;14522;52.068;4.414;2022-08-01T13:57:02;5.78;;;0.98;;
26965;SDS011;14522;52.068;4.414;2022-08-01T13:59:29;7.90;;;1.17;;
26965;SDS011;14522;52.068;4.414;2022-08-01T14:01:55;4.80;;;1.05;;
26965;SDS011;14522;52.068;4.414;2022-08-01T14:04:22;8.32;;;1.10;;
26965;SDS011;14522;52.068;4.414;2022-08-01T14:06:48;6.05;;;1.05;;
26965;SDS011;14522;52.068;4.414;2022-08-01T14:09:15;3.60;;;0.82;;
26965;SDS011;14522;52.068;4.414;2022-08-01T14:11:49;6.75;;;1.25;;
26965;SDS011;14522;52.068;4.414;2022-08-01T14:14:16;3.67;;;0.80;;
26965;SDS011;14522;52.068;4.414;2022-08-01T14:16:42;5.25;;;0.80;;
26965;SDS011;14522;52.068;4.414;2022-08-01T14:19:12;3.85;;;0.60;;
26965;SDS011;14522;52.068;4.414;2022-08-01T14:21:38;4.45;;;0.80;;
26965;SDS011;14522;52.068;4.414;2022-08-01T14:24:05;7.05;;;1.02;;
26965;SDS011;14522;52.068;4.414;2022-08-01T14:26:32;4.50;;;0.82;;
26965;SDS011;14522;52.068;4.414;2022-08-01T14:29:01;5.25;;;0.80;;
26965;SDS011;14522;52.068;4.414;2022-08-01T14:31:27;4.20;;;0.80;;
26965;SDS011;14522;52.068;4.414;2022-08-01T14:33:59;3.97;;;0.90;;
26965;SDS011;14522;52.068;4.414;2022-08-01T14:36:26;8.65;;;1.17;;
26965;SDS011;14522;52.068;4.414;2022-08-01T14:38:56;3.45;;;0.88;;
26965;SDS011;14522;52.068;4.414;2022-08-01T14:41:26;3.13;;;1.02;;
26965;SDS011;14522;52.068;4.414;2022-08-01T14:43:53;3.47;;;0.80;;
26965;SDS011;14522;52.068;4.414;2022-08-01T14:46:19;3.47;;;0.98;;
26965;SDS011;14522;52.068;4.414;2022-08-01T14:48:46;6.20;;;1.10;;
26965;SDS011;14522;52.068;4.414;2022-08-01T14:51:12;5.82;;;0.90;;
26965;SDS011;14522;52.068;4.414;2022-08-01T14:53:39;2.85;;;0.80;;
26965;SDS011;14522;52.068;4.414;2022-08-01T14:56:12;4.90;;;0.95;;
26965;SDS011;14522;52.068;4.414;2022-08-01T14:58:38;2.75;;;0.70;;
26965;SDS011;14522;52.068;4.414;2022-08-01T15:01:05;8.70;;;1.25;;
26965;SDS011;14522;52.068;4.414;2022-08-01T15:03:32;6.50;;;0.90;;
26965;SDS011;14522;52.068;4.414;2022-08-01T15:05:58;3.25;;;0.85;;
26965;SDS011;14522;52.068;4.414;2022-08-01T15:08:25;3.63;;;0.80;;
26965;SDS011;14522;52.068;4.414;2022-08-01T15:10:52;3.85;;;0.88;;
26965;SDS011;14522;52.068;4.414;2022-08-01T15:13:18;3.63;;;0.98;;
26965;SDS011;14522;52.068;4.414;2022-08-01T15:15:45;2.72;;;0.93;;
26965;SDS011;14522;52.068;4.414;2022-08-01T15:18:11;6.25;;;0.73;;
26965;SDS011;14522;52.068;4.414;2022-08-01T15:20:38;9.10;;;1.10;;
26965;SDS011;14522;52.068;4.414;2022-08-01T15:23:10;5.22;;;1.15;;
26965;SDS011;14522;52.068;4.414;2022-08-01T15:25:36;6.63;;;1.02;;
26965;SDS011;14522;52.068;4.414;2022-08-01T15:28:10;4.75;;;1.15;;
26965;SDS011;14522;52.068;4.414;2022-08-01T15:30:37;5.82;;;1.10;;
26965;SDS011;14522;52.068;4.414;2022-08-01T15:33:03;3.33;;;1.00;;
26965;SDS011;14522;52.068;4.414;2022-08-01T15:35:30;3.80;;;0.80;;
26965;SDS011;14522;52.068;4.414;2022-08-01T15:37:56;3.97;;;1.10;;
26965;SDS011;14522;52.068;4.414;2022-08-01T15:40:23;3.78;;;1.10;;
26965;SDS011;14522;52.068;4.414;2022-08-01T15:42:49;2.47;;;0.93;;
26965;SDS011;14522;52.068;4.414;2022-08-01T15:45:15;8.13;;;1.30;;
26965;SDS011;14522;52.068;4.414;2022-08-01T15:48:07;4.53;;;1.05;;
26965;SDS011;14522;52.068;4.414;2022-08-01T15:50:33;2.65;;;1.00;;
26965;SDS011;14522;52.068;4.414;2022-08-01T15:53:00;3.05;;;1.17;;
26965;SDS011;14522;52.068;4.414;2022-08-01T15:55:26;7.97;;;0.85;;